sensor_id;sensor_type;location;lat;lon;timestamp;temperature;humidity
4207;DHT22;2117;47.972;7.830;2023-08-30T01:00:47;12.90;99.90
4207;DHT22;2117;47.972;7.830;2023-08-30T01:03:13;12.90;99.90
4207;DHT22;2117;47.972;7.830;2023-08-30T01:05:38;12.90;99.90
4207;DHT22;2117;47.972;7.830;2023-08-30T01:08:04;12.90;99.90
4207;DHT22;2117;47.972;7.830;2023-08-30T01:10:44;12.90;99.90
4207;DHT22;2117;47.972;7.830;2023-08-30T01:13:13;12.90;99.90
4207;DHT22;2117;47.972;7.830;2023-08-30T01:15:40;12.90;99.90
4207;DHT22;2117;47.972;7.830;2023-08-30T01:18:08;12.90;99.90
4207;DHT22;2117;47.972;7.830;2023-08-30T01:20:37;12.90;99.90
4207;DHT22;2117;47.972;7.830;2023-08-30T01:28:37;12.90;99.90
4207;DHT22;2117;47.972;7.830;2023-08-30T01:31:06;12.90;99.90
4207;DHT22;2117;47.972;7.830;2023-08-30T01:33:33;12.80;99.90
4207;DHT22;2117;47.972;7.830;2023-08-30T01:36:00;12.80;99.90
4207;DHT22;2117;47.972;7.830;2023-08-30T01:38:28;12.80;99.90
4207;DHT22;2117;47.972;7.830;2023-08-30T01:40:55;12.80;99.90
4207;DHT22;2117;47.972;7.830;2023-08-30T01:43:22;12.70;99.90
4207;DHT22;2117;47.972;7.830;2023-08-30T01:45:47;12.70;99.90
4207;DHT22;2117;47.972;7.830;2023-08-30T01:48:15;12.60;99.90
4207;DHT22;2117;47.972;7.830;2023-08-30T01:50:43;12.60;99.90
4207;DHT22;2117;47.972;7.830;2023-08-30T01:53:10;12.60;99.90
4207;DHT22;2117;47.972;7.830;2023-08-30T01:55:37;12.50;99.90
4207;DHT22;2117;47.972;7.830;2023-08-30T01:58:03;12.50;99.90
4207;DHT22;2117;47.972;7.830;2023-08-30T02:00:29;12.40;99.90
4207;DHT22;2117;47.972;7.830;2023-08-30T02:02:55;12.40;99.90
4207;DHT22;2117;47.972;7.830;2023-08-30T02:05:21;12.40;99.90
4207;DHT22;2117;47.972;7.830;2023-08-30T02:10:37;12.40;99.90
4207;DHT22;2117;47.972;7.830;2023-08-30T02:13:06;12.40;99.90
4207;DHT22;2117;47.972;7.830;2023-08-30T02:15:33;12.40;99.90
4207;DHT22;2117;47.972;7.830;2023-08-30T02:17:59;12.30;99.90
4207;DHT22;2117;47.972;7.830;2023-08-30T02:20:25;12.40;99.90
4207;DHT22;2117;47.972;7.830;2023-08-30T02:22:51;12.40;99.90
4207;DHT22;2117;47.972;7.830;2023-08-30T02:25:16;12.40;99.90
4207;DHT22;2117;47.972;7.830;2023-08-30T02:27:42;12.40;99.90
4207;DHT22;2117;47.972;7.830;2023-08-30T02:30:08;12.40;99.90
4207;DHT22;2117;47.972;7.830;2023-08-30T02:32:34;12.30;99.90
4207;DHT22;2117;47.972;7.830;2023-08-30T02:35:00;12.30;99.90
4207;DHT22;2117;47.972;7.830;2023-08-30T02:37:25;12.30;99.90
4207;DHT22;2117;47.972;7.830;2023-08-30T02:39:51;12.30;99.90
4207;DHT22;2117;47.972;7.830;2023-08-30T02:42:17;12.30;99.90
4207;DHT22;2117;47.972;7.830;2023-08-30T02:44:42;12.30;99.90
4207;DHT22;2117;47.972;7.830;2023-08-30T02:47:08;12.30;99.90
4207;DHT22;2117;47.972;7.830;2023-08-30T02:49:33;12.30;99.90
4207;DHT22;2117;47.972;7.830;2023-08-30T02:51:59;12.30;99.90
4207;DHT22;2117;47.972;7.830;2023-08-30T02:54:25;12.30;99.90
4207;DHT22;2117;47.972;7.830;2023-08-30T02:56:50;12.30;99.90
4207;DHT22;2117;47.972;7.830;2023-08-30T02:59:16;12.30;99.90
4207;DHT22;2117;47.972;7.830;2023-08-30T03:01:41;12.30;99.90
4207;DHT22;2117;47.972;7.830;2023-08-30T03:04:07;12.20;99.90
4207;DHT22;2117;47.972;7.830;2023-08-30T03:06:34;12.20;99.90
4207;DHT22;2117;47.972;7.830;2023-08-30T03:09:00;12.20;99.90
4207;DHT22;2117;47.972;7.830;2023-08-30T03:11:25;12.10;99.90
4207;DHT22;2117;47.972;7.830;2023-08-30T03:13:52;12.20;99.90
4207;DHT22;2117;47.972;7.830;2023-08-30T03:16:18;12.20;99.90
4207;DHT22;2117;47.972;7.830;2023-08-30T03:18:44;12.20;99.90
4207;DHT22;2117;47.972;7.830;2023-08-30T03:21:10;12.20;99.90
4207;DHT22;2117;47.972;7.830;2023-08-30T03:23:36;12.20;99.90
4207;DHT22;2117;47.972;7.830;2023-08-30T03:26:12;12.20;99.90
4207;DHT22;2117;47.972;7.830;2023-08-30T03:28:38;12.10;99.90
4207;DHT22;2117;47.972;7.830;2023-08-30T03:31:17;12.10;99.90
4207;DHT22;2117;47.972;7.830;2023-08-30T03:33:43;12.10;99.90
4207;DHT22;2117;47.972;7.830;2023-08-30T03:36:14;12.10;99.90
4207;DHT22;2117;47.972;7.830;2023-08-30T03:38:40;12.10;99.90
4207;DHT22;2117;47.972;7.830;2023-08-30T03:41:06;12.10;99.90
4207;DHT22;2117;47.972;7.830;2023-08-30T03:43:33;12.00;99.90
4207;DHT22;2117;47.972;7.830;2023-08-30T03:45:59;12.00;99.90
4207;DHT22;2117;47.972;7.830;2023-08-30T03:48:25;12.00;99.90
4207;DHT22;2117;47.972;7.830;2023-08-30T03:50:51;11.90;99.90
4207;DHT22;2117;47.972;7.830;2023-08-30T03:53:17;12.00;99.90
4207;DHT22;2117;47.972;7.830;2023-08-30T03:55:42;11.90;99.90
4207;DHT22;2117;47.972;7.830;2023-08-30T03:58:08;11.90;99.90
4207;DHT22;2117;47.972;7.830;2023-08-30T04:00:36;11.90;99.90
4207;DHT22;2117;47.972;7.830;2023-08-30T04:03:02;11.90;99.90
4207;DHT22;2117;47.972;7.830;2023-08-30T04:05:33;12.00;99.90
4207;DHT22;2117;47.972;7.830;2023-08-30T04:07:59;11.90;99.90
4207;DHT22;2117;47.972;7.830;2023-08-30T04:10:24;11.90;99.90
4207;DHT22;2117;47.972;7.830;2023-08-30T04:12:50;11.90;99.90
4207;DHT22;2117;47.972;7.830;2023-08-30T04:15:15;11.90;99.90
4207;DHT22;2117;47.972;7.830;2023-08-30T04:17:41;11.90;99.90
4207;DHT22;2117;47.972;7.830;2023-08-30T04:20:07;11.90;99.90
4207;DHT22;2117;47.972;7.830;2023-08-30T04:22:33;11.90;99.90
4207;DHT22;2117;47.972;7.830;2023-08-30T04:25:00;11.90;99.90
4207;DHT22;2117;47.972;7.830;2023-08-30T04:27:25;11.90;99.90
4207;DHT22;2117;47.972;7.830;2023-08-30T04:29:52;11.90;99.90
4207;DHT22;2117;47.972;7.830;2023-08-30T04:32:18;11.90;99.90
4207;DHT22;2117;47.972;7.830;2023-08-30T04:34:43;12.00;99.90
4207;DHT22;2117;47.972;7.830;2023-08-30T04:37:09;12.00;99.90
4207;DHT22;2117;47.972;7.830;2023-08-30T04:39:34;12.00;99.90
4207;DHT22;2117;47.972;7.830;2023-08-30T04:42:00;11.90;99.90
4207;DHT22;2117;47.972;7.830;2023-08-30T04:44:28;11.90;99.90
4207;DHT22;2117;47.972;7.830;2023-08-30T04:46:54;11.90;99.90
4207;DHT22;2117;47.972;7.830;2023-08-30T04:49:20;11.90;99.90
4207;DHT22;2117;47.972;7.830;2023-08-30T04:51:46;11.90;99.90
4207;DHT22;2117;47.972;7.830;2023-08-30T04:54:12;11.90;99.90
4207;DHT22;2117;47.972;7.830;2023-08-30T04:56:38;12.00;99.90
4207;DHT22;2117;47.972;7.830;2023-08-30T04:59:03;12.00;99.90
4207;DHT22;2117;47.972;7.830;2023-08-30T05:01:32;12.00;99.90
4207;DHT22;2117;47.972;7.830;2023-08-30T05:03:57;12.10;99.90
4207;DHT22;2117;47.972;7.830;2023-08-30T05:06:23;12.10;99.90
4207;DHT22;2117;47.972;7.830;2023-08-30T05:08:48;12.10;99.90
4207;DHT22;2117;47.972;7.830;2023-08-30T05:11:14;12.10;99.90
4207;DHT22;2117;47.972;7.830;2023-08-30T05:13:39;12.10;99.90
4207;DHT22;2117;47.972;7.830;2023-08-30T05:16:05;12.20;99.90
4207;DHT22;2117;47.972;7.830;2023-08-30T05:18:30;12.20;99.90
4207;DHT22;2117;47.972;7.830;2023-08-30T05:20:56;12.30;99.90
4207;DHT22;2117;47.972;7.830;2023-08-30T05:23:21;12.30;99.90
4207;DHT22;2117;47.972;7.830;2023-08-30T05:25:47;12.40;99.90
4207;DHT22;2117;47.972;7.830;2023-08-30T05:28:12;12.80;99.90
4207;DHT22;2117;47.972;7.830;2023-08-30T05:30:41;13.30;99.90
4207;DHT22;2117;47.972;7.830;2023-08-30T05:33:07;13.70;99.90
4207;DHT22;2117;47.972;7.830;2023-08-30T05:35:32;14.00;99.90
4207;DHT22;2117;47.972;7.830;2023-08-30T05:37:58;14.20;99.90
4207;DHT22;2117;47.972;7.830;2023-08-30T05:40:23;14.50;99.90
4207;DHT22;2117;47.972;7.830;2023-08-30T05:42:50;14.70;99.90
4207;DHT22;2117;47.972;7.830;2023-08-30T05:45:15;14.90;99.90
4207;DHT22;2117;47.972;7.830;2023-08-30T05:47:41;15.10;99.90
4207;DHT22;2117;47.972;7.830;2023-08-30T05:50:07;15.20;99.90
4207;DHT22;2117;47.972;7.830;2023-08-30T05:52:33;15.30;99.90
4207;DHT22;2117;47.972;7.830;2023-08-30T05:54:59;15.60;99.90
4207;DHT22;2117;47.972;7.830;2023-08-30T05:57:24;15.60;99.90
4207;DHT22;2117;47.972;7.830;2023-08-30T05:59:51;15.40;99.90
4207;DHT22;2117;47.972;7.830;2023-08-30T06:02:16;15.10;99.90
4207;DHT22;2117;47.972;7.830;2023-08-30T06:04:42;14.90;99.90
4207;DHT22;2117;47.972;7.830;2023-08-30T06:07:08;14.70;99.90
4207;DHT22;2117;47.972;7.830;2023-08-30T06:09:33;14.60;99.90
4207;DHT22;2117;47.972;7.830;2023-08-30T06:11:59;14.50;99.90
4207;DHT22;2117;47.972;7.830;2023-08-30T06:14:25;14.40;99.90
4207;DHT22;2117;47.972;7.830;2023-08-30T06:16:50;14.30;99.90
4207;DHT22;2117;47.972;7.830;2023-08-30T06:19:16;14.30;99.90
4207;DHT22;2117;47.972;7.830;2023-08-30T06:21:41;14.20;99.90
4207;DHT22;2117;47.972;7.830;2023-08-30T06:24:07;14.20;99.90
4207;DHT22;2117;47.972;7.830;2023-08-30T06:26:32;14.20;99.90
4207;DHT22;2117;47.972;7.830;2023-08-30T06:28:58;14.20;99.90
4207;DHT22;2117;47.972;7.830;2023-08-30T06:31:24;14.20;99.90
4207;DHT22;2117;47.972;7.830;2023-08-30T06:33:49;14.20;99.90
4207;DHT22;2117;47.972;7.830;2023-08-30T06:36:16;14.20;99.90
4207;DHT22;2117;47.972;7.830;2023-08-30T06:38:43;14.20;99.90
4207;DHT22;2117;47.972;7.830;2023-08-30T06:41:08;14.30;99.90
4207;DHT22;2117;47.972;7.830;2023-08-30T06:43:34;14.30;99.90
4207;DHT22;2117;47.972;7.830;2023-08-30T06:46:00;14.30;99.90
4207;DHT22;2117;47.972;7.830;2023-08-30T06:48:25;14.30;99.90
4207;DHT22;2117;47.972;7.830;2023-08-30T06:50:51;14.40;99.90
4207;DHT22;2117;47.972;7.830;2023-08-30T06:53:17;14.40;99.90
4207;DHT22;2117;47.972;7.830;2023-08-30T06:55:42;14.40;99.90
4207;DHT22;2117;47.972;7.830;2023-08-30T06:58:08;14.50;99.90
4207;DHT22;2117;47.972;7.830;2023-08-30T07:00:33;14.50;99.90
4207;DHT22;2117;47.972;7.830;2023-08-30T07:02:59;14.50;99.90
4207;DHT22;2117;47.972;7.830;2023-08-30T07:05:24;14.50;99.90
4207;DHT22;2117;47.972;7.830;2023-08-30T07:07:50;14.50;99.90
4207;DHT22;2117;47.972;7.830;2023-08-30T07:10:16;14.60;99.90
4207;DHT22;2117;47.972;7.830;2023-08-30T07:12:41;14.60;99.90
4207;DHT22;2117;47.972;7.830;2023-08-30T07:15:07;14.80;99.90
4207;DHT22;2117;47.972;7.830;2023-08-30T07:17:33;14.80;99.90
4207;DHT22;2117;47.972;7.830;2023-08-30T07:19:59;14.90;99.90
4207;DHT22;2117;47.972;7.830;2023-08-30T07:22:24;14.90;99.90
4207;DHT22;2117;47.972;7.830;2023-08-30T07:27:16;15.00;99.90
4207;DHT22;2117;47.972;7.830;2023-08-30T07:29:42;15.10;99.90
4207;DHT22;2117;47.972;7.830;2023-08-30T07:32:09;15.10;99.90
4207;DHT22;2117;47.972;7.830;2023-08-30T07:34:35;15.30;99.90
4207;DHT22;2117;47.972;7.830;2023-08-30T07:37:00;15.30;99.90
4207;DHT22;2117;47.972;7.830;2023-08-30T07:39:26;15.50;99.90
4207;DHT22;2117;47.972;7.830;2023-08-30T07:41:52;15.50;99.90
4207;DHT22;2117;47.972;7.830;2023-08-30T07:44:17;15.60;99.90
4207;DHT22;2117;47.972;7.830;2023-08-30T07:46:45;15.70;99.90
4207;DHT22;2117;47.972;7.830;2023-08-30T07:49:10;15.80;99.90
4207;DHT22;2117;47.972;7.830;2023-08-30T07:51:36;15.90;99.90
4207;DHT22;2117;47.972;7.830;2023-08-30T07:54:01;16.00;99.90
4207;DHT22;2117;47.972;7.830;2023-08-30T07:56:27;16.10;99.90
4207;DHT22;2117;47.972;7.830;2023-08-30T07:58:54;16.20;99.90
4207;DHT22;2117;47.972;7.830;2023-08-30T08:01:20;16.30;99.90
4207;DHT22;2117;47.972;7.830;2023-08-30T08:03:46;16.40;99.90
4207;DHT22;2117;47.972;7.830;2023-08-30T08:06:12;16.50;99.90
4207;DHT22;2117;47.972;7.830;2023-08-30T08:08:38;16.50;99.90
4207;DHT22;2117;47.972;7.830;2023-08-30T08:11:03;16.60;99.90
4207;DHT22;2117;47.972;7.830;2023-08-30T08:13:29;16.70;99.90
4207;DHT22;2117;47.972;7.830;2023-08-30T08:15:57;16.80;99.90
4207;DHT22;2117;47.972;7.830;2023-08-30T08:18:23;16.80;99.90
4207;DHT22;2117;47.972;7.830;2023-08-30T08:20:49;17.00;99.90
4207;DHT22;2117;47.972;7.830;2023-08-30T08:23:14;17.00;99.90
4207;DHT22;2117;47.972;7.830;2023-08-30T08:25:40;17.10;99.90
4207;DHT22;2117;47.972;7.830;2023-08-30T08:28:06;17.20;99.90
4207;DHT22;2117;47.972;7.830;2023-08-30T08:30:31;17.20;99.90
4207;DHT22;2117;47.972;7.830;2023-08-30T08:32:57;17.30;99.90
4207;DHT22;2117;47.972;7.830;2023-08-30T08:35:24;17.20;99.90
4207;DHT22;2117;47.972;7.830;2023-08-30T08:37:49;17.20;99.90
4207;DHT22;2117;47.972;7.830;2023-08-30T08:40:15;17.10;99.90
4207;DHT22;2117;47.972;7.830;2023-08-30T08:42:42;17.20;99.90
4207;DHT22;2117;47.972;7.830;2023-08-30T08:45:10;17.30;99.90
4207;DHT22;2117;47.972;7.830;2023-08-30T08:47:37;17.30;99.90
4207;DHT22;2117;47.972;7.830;2023-08-30T08:50:04;17.30;99.90
4207;DHT22;2117;47.972;7.830;2023-08-30T08:52:30;17.40;99.90
4207;DHT22;2117;47.972;7.830;2023-08-30T08:54:55;17.50;99.90
4207;DHT22;2117;47.972;7.830;2023-08-30T08:57:21;17.50;99.90
4207;DHT22;2117;47.972;7.830;2023-08-30T08:59:47;17.60;99.90
4207;DHT22;2117;47.972;7.830;2023-08-30T09:02:14;17.70;99.90
4207;DHT22;2117;47.972;7.830;2023-08-30T09:04:40;17.90;99.90
4207;DHT22;2117;47.972;7.830;2023-08-30T09:07:06;18.10;99.90
4207;DHT22;2117;47.972;7.830;2023-08-30T09:09:33;17.90;99.90
4207;DHT22;2117;47.972;7.830;2023-08-30T09:11:59;18.00;99.90
4207;DHT22;2117;47.972;7.830;2023-08-30T09:14:25;17.80;99.90
4207;DHT22;2117;47.972;7.830;2023-08-30T09:17:08;17.90;99.90
4207;DHT22;2117;47.972;7.830;2023-08-30T09:19:34;18.10;99.90
4207;DHT22;2117;47.972;7.830;2023-08-30T09:22:00;18.10;99.90
4207;DHT22;2117;47.972;7.830;2023-08-30T09:24:26;18.20;99.90
4207;DHT22;2117;47.972;7.830;2023-08-30T09:27:03;18.10;99.90
4207;DHT22;2117;47.972;7.830;2023-08-30T09:29:29;18.00;99.90
4207;DHT22;2117;47.972;7.830;2023-08-30T09:31:55;18.00;99.90
4207;DHT22;2117;47.972;7.830;2023-08-30T09:34:25;17.90;99.90
4207;DHT22;2117;47.972;7.830;2023-08-30T09:36:51;17.80;99.90
4207;DHT22;2117;47.972;7.830;2023-08-30T09:39:17;17.90;99.90
4207;DHT22;2117;47.972;7.830;2023-08-30T09:41:44;18.00;99.90
4207;DHT22;2117;47.972;7.830;2023-08-30T09:44:13;18.10;99.90
4207;DHT22;2117;47.972;7.830;2023-08-30T09:46:52;18.10;99.90
4207;DHT22;2117;47.972;7.830;2023-08-30T09:49:20;18.10;99.90
4207;DHT22;2117;47.972;7.830;2023-08-30T09:51:47;18.10;99.90
4207;DHT22;2117;47.972;7.830;2023-08-30T09:54:20;18.20;99.90
4207;DHT22;2117;47.972;7.830;2023-08-30T09:56:46;18.30;99.90
4207;DHT22;2117;47.972;7.830;2023-08-30T09:59:13;18.30;99.90
4207;DHT22;2117;47.972;7.830;2023-08-30T10:01:43;18.40;99.90
4207;DHT22;2117;47.972;7.830;2023-08-30T10:04:09;18.50;99.90
4207;DHT22;2117;47.972;7.830;2023-08-30T10:06:37;18.70;99.90
4207;DHT22;2117;47.972;7.830;2023-08-30T10:09:03;18.80;99.90
4207;DHT22;2117;47.972;7.830;2023-08-30T10:11:32;18.80;99.90
4207;DHT22;2117;47.972;7.830;2023-08-30T10:13:59;18.80;99.90
4207;DHT22;2117;47.972;7.830;2023-08-30T10:16:26;18.80;99.90
4207;DHT22;2117;47.972;7.830;2023-08-30T10:18:59;18.90;99.90
4207;DHT22;2117;47.972;7.830;2023-08-30T10:21:26;19.00;99.90
4207;DHT22;2117;47.972;7.830;2023-08-30T10:23:53;19.30;99.90
4207;DHT22;2117;47.972;7.830;2023-08-30T10:26:23;19.30;99.90
4207;DHT22;2117;47.972;7.830;2023-08-30T10:28:51;19.50;99.90
4207;DHT22;2117;47.972;7.830;2023-08-30T10:31:18;19.60;99.90
4207;DHT22;2117;47.972;7.830;2023-08-30T10:34:01;19.80;99.90
4207;DHT22;2117;47.972;7.830;2023-08-30T10:36:27;19.70;99.90
4207;DHT22;2117;47.972;7.830;2023-08-30T10:38:53;19.80;99.90
4207;DHT22;2117;47.972;7.830;2023-08-30T10:41:21;19.70;99.90
4207;DHT22;2117;47.972;7.830;2023-08-30T10:43:54;19.60;99.90
4207;DHT22;2117;47.972;7.830;2023-08-30T10:46:33;19.50;99.90
4207;DHT22;2117;47.972;7.830;2023-08-30T10:49:12;19.50;99.90
4207;DHT22;2117;47.972;7.830;2023-08-30T10:51:39;19.70;99.90
4207;DHT22;2117;47.972;7.830;2023-08-30T10:54:16;20.10;99.90
4207;DHT22;2117;47.972;7.830;2023-08-30T10:56:46;20.30;99.90
4207;DHT22;2117;47.972;7.830;2023-08-30T10:59:18;20.40;99.90
4207;DHT22;2117;47.972;7.830;2023-08-30T11:01:49;20.50;99.90
4207;DHT22;2117;47.972;7.830;2023-08-30T11:04:16;20.60;99.90
4207;DHT22;2117;47.972;7.830;2023-08-30T11:06:46;20.20;99.90
4207;DHT22;2117;47.972;7.830;2023-08-30T11:09:16;20.50;99.90
4207;DHT22;2117;47.972;7.830;2023-08-30T11:11:44;20.60;99.90
4207;DHT22;2117;47.972;7.830;2023-08-30T11:14:10;20.70;99.90
4207;DHT22;2117;47.972;7.830;2023-08-30T11:16:36;21.00;99.90
4207;DHT22;2117;47.972;7.830;2023-08-30T11:19:03;21.40;99.90
4207;DHT22;2117;47.972;7.830;2023-08-30T11:21:33;21.60;99.90
4207;DHT22;2117;47.972;7.830;2023-08-30T11:23:59;21.70;99.90
4207;DHT22;2117;47.972;7.830;2023-08-30T11:26:25;22.20;99.90
4207;DHT22;2117;47.972;7.830;2023-08-30T11:28:51;22.30;99.90
4207;DHT22;2117;47.972;7.830;2023-08-30T11:31:24;22.30;99.90
4207;DHT22;2117;47.972;7.830;2023-08-30T11:33:53;22.80;99.90
4207;DHT22;2117;47.972;7.830;2023-08-30T11:36:21;22.80;99.90
4207;DHT22;2117;47.972;7.830;2023-08-30T11:38:50;22.40;99.90
4207;DHT22;2117;47.972;7.830;2023-08-30T11:41:16;22.20;99.90
4207;DHT22;2117;47.972;7.830;2023-08-30T11:43:43;21.10;99.90
4207;DHT22;2117;47.972;7.830;2023-08-30T11:46:09;20.80;99.90
4207;DHT22;2117;47.972;7.830;2023-08-30T11:48:35;20.50;99.90
4207;DHT22;2117;47.972;7.830;2023-08-30T11:51:01;20.60;99.90
4207;DHT22;2117;47.972;7.830;2023-08-30T11:53:27;21.00;99.90
4207;DHT22;2117;47.972;7.830;2023-08-30T11:55:53;21.70;99.90
4207;DHT22;2117;47.972;7.830;2023-08-30T11:58:19;22.40;99.90
4207;DHT22;2117;47.972;7.830;2023-08-30T12:00:45;22.40;99.90
4207;DHT22;2117;47.972;7.830;2023-08-30T12:03:14;22.40;99.90
4207;DHT22;2117;47.972;7.830;2023-08-30T12:05:47;22.10;99.90
4207;DHT22;2117;47.972;7.830;2023-08-30T12:08:20;21.80;99.90
4207;DHT22;2117;47.972;7.830;2023-08-30T12:10:46;21.80;99.90
4207;DHT22;2117;47.972;7.830;2023-08-30T12:13:28;22.00;99.90
4207;DHT22;2117;47.972;7.830;2023-08-30T12:15:55;22.50;99.90
4207;DHT22;2117;47.972;7.830;2023-08-30T12:18:25;22.50;99.90
4207;DHT22;2117;47.972;7.830;2023-08-30T12:20:54;22.20;99.90
4207;DHT22;2117;47.972;7.830;2023-08-30T12:23:21;22.40;99.90
4207;DHT22;2117;47.972;7.830;2023-08-30T12:26:06;22.80;99.90
4207;DHT22;2117;47.972;7.830;2023-08-30T12:28:37;23.40;99.90
4207;DHT22;2117;47.972;7.830;2023-08-30T12:31:02;23.10;99.90
4207;DHT22;2117;47.972;7.830;2023-08-30T12:33:33;23.40;99.90
4207;DHT22;2117;47.972;7.830;2023-08-30T12:35:58;23.50;99.90
4207;DHT22;2117;47.972;7.830;2023-08-30T12:38:24;23.20;99.90
4207;DHT22;2117;47.972;7.830;2023-08-30T12:40:51;22.90;99.90
4207;DHT22;2117;47.972;7.830;2023-08-30T12:43:18;22.60;99.90
4207;DHT22;2117;47.972;7.830;2023-08-30T12:45:45;22.40;99.90
4207;DHT22;2117;47.972;7.830;2023-08-30T12:48:12;22.40;99.90
4207;DHT22;2117;47.972;7.830;2023-08-30T12:50:39;22.60;99.90
4207;DHT22;2117;47.972;7.830;2023-08-30T12:53:05;22.60;99.90
4207;DHT22;2117;47.972;7.830;2023-08-30T12:55:31;22.80;99.90
4207;DHT22;2117;47.972;7.830;2023-08-30T12:57:57;23.40;99.90
4207;DHT22;2117;47.972;7.830;2023-08-30T13:00:23;23.40;99.90
4207;DHT22;2117;47.972;7.830;2023-08-30T13:02:49;23.20;99.90
4207;DHT22;2117;47.972;7.830;2023-08-30T13:05:15;23.30;99.90
4207;DHT22;2117;47.972;7.830;2023-08-30T13:07:40;23.30;99.90
4207;DHT22;2117;47.972;7.830;2023-08-30T13:10:06;23.00;99.90
4207;DHT22;2117;47.972;7.830;2023-08-30T13:12:32;23.00;99.90
4207;DHT22;2117;47.972;7.830;2023-08-30T13:14:58;22.00;99.90
4207;DHT22;2117;47.972;7.830;2023-08-30T13:17:23;22.10;99.90
4207;DHT22;2117;47.972;7.830;2023-08-30T13:19:49;22.40;99.90
4207;DHT22;2117;47.972;7.830;2023-08-30T13:22:15;22.60;99.90
4207;DHT22;2117;47.972;7.830;2023-08-30T13:24:40;23.10;99.90
4207;DHT22;2117;47.972;7.830;2023-08-30T13:27:06;23.80;99.90
4207;DHT22;2117;47.972;7.830;2023-08-30T13:29:32;24.10;99.90
4207;DHT22;2117;47.972;7.830;2023-08-30T13:31:57;24.50;99.90
4207;DHT22;2117;47.972;7.830;2023-08-30T13:34:23;24.80;99.90
4207;DHT22;2117;47.972;7.830;2023-08-30T13:36:48;24.80;99.90
4207;DHT22;2117;47.972;7.830;2023-08-30T13:39:14;25.10;99.90
4207;DHT22;2117;47.972;7.830;2023-08-30T13:41:40;24.80;99.90
4207;DHT22;2117;47.972;7.830;2023-08-30T13:44:06;24.80;99.90
4207;DHT22;2117;47.972;7.830;2023-08-30T13:46:31;24.90;99.90
4207;DHT22;2117;47.972;7.830;2023-08-30T13:48:57;24.90;99.90
4207;DHT22;2117;47.972;7.830;2023-08-30T13:51:24;24.90;99.90
4207;DHT22;2117;47.972;7.830;2023-08-30T13:53:50;24.80;99.90
4207;DHT22;2117;47.972;7.830;2023-08-30T13:56:16;24.60;99.90
4207;DHT22;2117;47.972;7.830;2023-08-30T13:58:41;24.80;99.90
4207;DHT22;2117;47.972;7.830;2023-08-30T14:01:07;25.40;99.90
4207;DHT22;2117;47.972;7.830;2023-08-30T14:03:33;26.00;99.90
4207;DHT22;2117;47.972;7.830;2023-08-30T14:05:59;26.20;99.90
4207;DHT22;2117;47.972;7.830;2023-08-30T14:08:24;26.50;99.90
4207;DHT22;2117;47.972;7.830;2023-08-30T14:10:50;26.20;99.90
4207;DHT22;2117;47.972;7.830;2023-08-30T14:13:16;25.50;99.90
4207;DHT22;2117;47.972;7.830;2023-08-30T14:15:42;25.20;99.90
4207;DHT22;2117;47.972;7.830;2023-08-30T14:18:08;24.80;99.90
4207;DHT22;2117;47.972;7.830;2023-08-30T14:20:34;24.60;99.90
4207;DHT22;2117;47.972;7.830;2023-08-30T14:22:59;24.10;99.90
4207;DHT22;2117;47.972;7.830;2023-08-30T14:25:25;23.80;99.90
4207;DHT22;2117;47.972;7.830;2023-08-30T14:27:50;23.60;99.90
4207;DHT22;2117;47.972;7.830;2023-08-30T14:30:16;23.40;99.90
4207;DHT22;2117;47.972;7.830;2023-08-30T14:32:42;23.10;99.90
4207;DHT22;2117;47.972;7.830;2023-08-30T14:35:08;22.70;99.90
4207;DHT22;2117;47.972;7.830;2023-08-30T14:37:33;22.70;99.90
4207;DHT22;2117;47.972;7.830;2023-08-30T14:40:03;22.60;99.90
4207;DHT22;2117;47.972;7.830;2023-08-30T14:42:29;22.30;99.90
4207;DHT22;2117;47.972;7.830;2023-08-30T14:44:55;21.90;99.90
4207;DHT22;2117;47.972;7.830;2023-08-30T14:47:21;21.90;99.90
4207;DHT22;2117;47.972;7.830;2023-08-30T14:49:46;21.90;99.90
4207;DHT22;2117;47.972;7.830;2023-08-30T14:52:13;21.80;99.90
4207;DHT22;2117;47.972;7.830;2023-08-30T14:54:39;21.80;99.90
4207;DHT22;2117;47.972;7.830;2023-08-30T14:57:04;21.70;99.90
4207;DHT22;2117;47.972;7.830;2023-08-30T14:59:30;21.70;99.90
4207;DHT22;2117;47.972;7.830;2023-08-30T15:01:55;21.60;99.90
4207;DHT22;2117;47.972;7.830;2023-08-30T15:04:21;21.50;99.90
4207;DHT22;2117;47.972;7.830;2023-08-30T15:06:47;21.40;99.90
4207;DHT22;2117;47.972;7.830;2023-08-30T15:09:12;21.40;99.90
4207;DHT22;2117;47.972;7.830;2023-08-30T15:11:41;21.30;99.90
4207;DHT22;2117;47.972;7.830;2023-08-30T15:14:07;21.20;99.90
4207;DHT22;2117;47.972;7.830;2023-08-30T15:16:33;21.20;99.90
4207;DHT22;2117;47.972;7.830;2023-08-30T15:18:58;21.10;99.90
4207;DHT22;2117;47.972;7.830;2023-08-30T15:21:24;21.10;99.90
4207;DHT22;2117;47.972;7.830;2023-08-30T15:23:49;21.10;99.90
4207;DHT22;2117;47.972;7.830;2023-08-30T15:26:15;21.20;99.90
4207;DHT22;2117;47.972;7.830;2023-08-30T15:28:46;21.20;99.90
4207;DHT22;2117;47.972;7.830;2023-08-30T15:31:13;21.20;99.90
4207;DHT22;2117;47.972;7.830;2023-08-30T15:33:38;21.30;99.90
4207;DHT22;2117;47.972;7.830;2023-08-30T15:36:04;21.40;99.90
4207;DHT22;2117;47.972;7.830;2023-08-30T15:38:30;21.50;99.90
4207;DHT22;2117;47.972;7.830;2023-08-30T15:40:56;21.60;99.90
4207;DHT22;2117;47.972;7.830;2023-08-30T15:43:22;21.80;99.90
4207;DHT22;2117;47.972;7.830;2023-08-30T15:45:49;21.80;99.90
4207;DHT22;2117;47.972;7.830;2023-08-30T15:48:15;21.90;99.90
4207;DHT22;2117;47.972;7.830;2023-08-30T15:50:42;21.80;99.90
4207;DHT22;2117;47.972;7.830;2023-08-30T15:53:08;21.70;99.90
4207;DHT22;2117;47.972;7.830;2023-08-30T15:55:35;21.60;99.90
4207;DHT22;2117;47.972;7.830;2023-08-30T15:58:00;21.60;99.90
4207;DHT22;2117;47.972;7.830;2023-08-30T16:00:26;21.60;99.90
4207;DHT22;2117;47.972;7.830;2023-08-30T16:02:52;21.60;99.90
4207;DHT22;2117;47.972;7.830;2023-08-30T16:05:18;21.40;99.90
4207;DHT22;2117;47.972;7.830;2023-08-30T16:07:43;21.40;99.90
4207;DHT22;2117;47.972;7.830;2023-08-30T16:10:09;21.30;99.90
4207;DHT22;2117;47.972;7.830;2023-08-30T16:12:35;21.20;99.90
4207;DHT22;2117;47.972;7.830;2023-08-30T16:15:01;21.20;99.90
4207;DHT22;2117;47.972;7.830;2023-08-30T16:17:27;21.20;99.90
4207;DHT22;2117;47.972;7.830;2023-08-30T16:19:52;21.20;99.90
4207;DHT22;2117;47.972;7.830;2023-08-30T16:22:19;21.20;99.90
4207;DHT22;2117;47.972;7.830;2023-08-30T16:24:45;21.20;99.90
4207;DHT22;2117;47.972;7.830;2023-08-30T16:27:11;21.10;99.90
4207;DHT22;2117;47.972;7.830;2023-08-30T16:29:36;21.00;99.90
4207;DHT22;2117;47.972;7.830;2023-08-30T16:32:02;21.00;99.90
4207;DHT22;2117;47.972;7.830;2023-08-30T16:34:28;21.00;99.90
4207;DHT22;2117;47.972;7.830;2023-08-30T16:36:53;21.00;99.90
4207;DHT22;2117;47.972;7.830;2023-08-30T16:39:19;20.90;99.90
4207;DHT22;2117;47.972;7.830;2023-08-30T16:41:44;20.80;99.90
4207;DHT22;2117;47.972;7.830;2023-08-30T16:44:10;20.70;99.90
4207;DHT22;2117;47.972;7.830;2023-08-30T16:46:38;20.70;99.90
4207;DHT22;2117;47.972;7.830;2023-08-30T16:49:05;20.70;99.90
4207;DHT22;2117;47.972;7.830;2023-08-30T16:51:30;20.70;99.90
4207;DHT22;2117;47.972;7.830;2023-08-30T16:53:56;20.60;99.90
4207;DHT22;2117;47.972;7.830;2023-08-30T16:56:21;20.50;99.90
4207;DHT22;2117;47.972;7.830;2023-08-30T16:58:47;20.50;99.90
4207;DHT22;2117;47.972;7.830;2023-08-30T17:01:13;20.40;99.90
4207;DHT22;2117;47.972;7.830;2023-08-30T17:03:38;20.30;99.90
4207;DHT22;2117;47.972;7.830;2023-08-30T17:06:04;20.30;99.90
4207;DHT22;2117;47.972;7.830;2023-08-30T17:08:30;20.20;99.90